sensor_id;sensor_type;location;lat;lon;timestamp;pressure;altitude;pressure_sealevel;temperature
85096;BMP280;75436;53.502;10.030;2024-02-21T00:01:22;101222.81;;;9.51
85096;BMP280;75436;53.502;10.030;2024-02-21T00:03:47;101215.19;;;9.41
85096;BMP280;75436;53.502;10.030;2024-02-21T00:06:13;101199.53;;;9.36
85096;BMP280;75436;53.502;10.030;2024-02-21T00:08:38;101191.69;;;9.36
85096;BMP280;75436;53.502;10.030;2024-02-21T00:11:04;101177.09;;;9.30
85096;BMP280;75436;53.502;10.030;2024-02-21T00:13:29;101160.50;;;9.34
85096;BMP280;75436;53.502;10.030;2024-02-21T00:15:55;101152.09;;;9.24
85096;BMP280;75436;53.502;10.030;2024-02-21T00:18:21;101133.75;;;9.24
85096;BMP280;75436;53.502;10.030;2024-02-21T00:20:47;101111.34;;;9.18
85096;BMP280;75436;53.502;10.030;2024-02-21T00:23:13;101111.34;;;9.18
85096;BMP280;75436;53.502;10.030;2024-02-21T00:25:38;101085.38;;;9.30
85096;BMP280;75436;53.502;10.030;2024-02-21T00:28:04;101094.19;;;9.34
85096;BMP280;75436;53.502;10.030;2024-02-21T00:30:31;101092.66;;;9.33
85096;BMP280;75436;53.502;10.030;2024-02-21T00:32:57;101089.19;;;9.24
85096;BMP280;75436;53.502;10.030;2024-02-21T00:35:24;101068.72;;;9.26
85096;BMP280;75436;53.502;10.030;2024-02-21T00:37:51;101067.16;;;9.25
85096;BMP280;75436;53.502;10.030;2024-02-21T00:40:19;101056.38;;;9.26
85096;BMP280;75436;53.502;10.030;2024-02-21T00:42:46;101050.38;;;9.26
85096;BMP280;75436;53.502;10.030;2024-02-21T00:45:13;101057.94;;;9.27
85096;BMP280;75436;53.502;10.030;2024-02-21T00:47:38;101047.75;;;9.26
85096;BMP280;75436;53.502;10.030;2024-02-21T00:50:04;101048.28;;;9.36
85096;BMP280;75436;53.502;10.030;2024-02-21T00:52:30;101044.50;;;9.29
85096;BMP280;75436;53.502;10.030;2024-02-21T00:54:56;101039.34;;;9.37
85096;BMP280;75436;53.502;10.030;2024-02-21T00:57:23;101043.34;;;9.35
85096;BMP280;75436;53.502;10.030;2024-02-21T00:59:51;101036.19;;;9.27
85096;BMP280;75436;53.502;10.030;2024-02-21T01:02:17;101038.53;;;9.28
85096;BMP280;75436;53.502;10.030;2024-02-21T01:04:45;101033.16;;;9.33
85096;BMP280;75436;53.502;10.030;2024-02-21T01:07:10;101031.09;;;9.44
85096;BMP280;75436;53.502;10.030;2024-02-21T01:09:36;101018.50;;;9.32
85096;BMP280;75436;53.502;10.030;2024-02-21T01:12:01;101017.13;;;9.35
85096;BMP280;75436;53.502;10.030;2024-02-21T01:14:33;101003.91;;;9.40
85096;BMP280;75436;53.502;10.030;2024-02-21T01:16:59;101010.81;;;9.36
85096;BMP280;75436;53.502;10.030;2024-02-21T01:19:24;101009.13;;;9.40
85096;BMP280;75436;53.502;10.030;2024-02-21T01:21:50;101008.91;;;9.50
85096;BMP280;75436;53.502;10.030;2024-02-21T01:24:15;101006.81;;;9.38
85096;BMP280;75436;53.502;10.030;2024-02-21T01:26:41;101004.97;;;9.39
85096;BMP280;75436;53.502;10.030;2024-02-21T01:29:06;101001.97;;;9.45
85096;BMP280;75436;53.502;10.030;2024-02-21T01:31:31;100998.47;;;9.36
85096;BMP280;75436;53.502;10.030;2024-02-21T01:33:58;100985.69;;;9.35
85096;BMP280;75436;53.502;10.030;2024-02-21T01:36:23;100983.63;;;9.45
85096;BMP280;75436;53.502;10.030;2024-02-21T01:38:50;100975.06;;;9.40
85096;BMP280;75436;53.502;10.030;2024-02-21T01:41:15;100981.50;;;9.34
85096;BMP280;75436;53.502;10.030;2024-02-21T01:43:41;100961.13;;;9.31
85096;BMP280;75436;53.502;10.030;2024-02-21T01:46:06;100946.47;;;9.30
85096;BMP280;75436;53.502;10.030;2024-02-21T01:48:34;100924.16;;;9.32
85096;BMP280;75436;53.502;10.030;2024-02-21T01:51:04;100913.25;;;9.39
85096;BMP280;75436;53.502;10.030;2024-02-21T01:53:32;100899.47;;;9.33
85096;BMP280;75436;53.502;10.030;2024-02-21T01:56:05;100879.19;;;9.17
85096;BMP280;75436;53.502;10.030;2024-02-21T01:58:32;100864.22;;;9.09
85096;BMP280;75436;53.502;10.030;2024-02-21T02:01:02;100844.97;;;9.14
85096;BMP280;75436;53.502;10.030;2024-02-21T02:03:27;100829.19;;;9.05
85096;BMP280;75436;53.502;10.030;2024-02-21T02:05:53;100807.63;;;9.08
85096;BMP280;75436;53.502;10.030;2024-02-21T02:08:19;100799.28;;;9.06
85096;BMP280;75436;53.502;10.030;2024-02-21T02:10:47;100790.19;;;9.04
85096;BMP280;75436;53.502;10.030;2024-02-21T02:13:13;100765.88;;;9.12
85096;BMP280;75436;53.502;10.030;2024-02-21T02:15:40;100773.38;;;9.05
85096;BMP280;75436;53.502;10.030;2024-02-21T02:18:10;100764.75;;;9.04
85096;BMP280;75436;53.502;10.030;2024-02-21T02:20:38;100756.31;;;9.07
85096;BMP280;75436;53.502;10.030;2024-02-21T02:25:52;100736.66;;;9.18
85096;BMP280;75436;53.502;10.030;2024-02-21T02:28:18;100716.59;;;9.22
85096;BMP280;75436;53.502;10.030;2024-02-21T02:30:44;100718.31;;;9.18
85096;BMP280;75436;53.502;10.030;2024-02-21T02:33:10;100708.88;;;9.17
85096;BMP280;75436;53.502;10.030;2024-02-21T02:35:37;100713.38;;;9.25
85096;BMP280;75436;53.502;10.030;2024-02-21T02:38:04;100701.53;;;9.27
85096;BMP280;75436;53.502;10.030;2024-02-21T02:40:33;100700.75;;;9.27
85096;BMP280;75436;53.502;10.030;2024-02-21T02:42:59;100711.38;;;9.22
85096;BMP280;75436;53.502;10.030;2024-02-21T02:45:25;100715.06;;;9.29
85096;BMP280;75436;53.502;10.030;2024-02-21T02:47:55;100711.53;;;9.25
85096;BMP280;75436;53.502;10.030;2024-02-21T02:50:26;100709.50;;;9.23
85096;BMP280;75436;53.502;10.030;2024-02-21T02:52:52;100702.28;;;9.28
85096;BMP280;75436;53.502;10.030;2024-02-21T02:55:19;100709.06;;;9.29
85096;BMP280;75436;53.502;10.030;2024-02-21T02:57:44;100710.47;;;9.26
85096;BMP280;75436;53.502;10.030;2024-02-21T03:00:11;100725.25;;;9.23
85096;BMP280;75436;53.502;10.030;2024-02-21T03:02:39;100728.63;;;9.23
85096;BMP280;75436;53.502;10.030;2024-02-21T03:05:17;100742.53;;;9.32
85096;BMP280;75436;53.502;10.030;2024-02-21T03:07:46;100738.38;;;9.31
85096;BMP280;75436;53.502;10.030;2024-02-21T03:10:13;100751.66;;;9.43
85096;BMP280;75436;53.502;10.030;2024-02-21T03:12:39;100768.25;;;9.30
85096;BMP280;75436;53.502;10.030;2024-02-21T03:15:05;100799.28;;;9.36
85096;BMP280;75436;53.502;10.030;2024-02-21T03:17:32;100796.78;;;9.31
85096;BMP280;75436;53.502;10.030;2024-02-21T03:20:02;100792.06;;;9.42
85096;BMP280;75436;53.502;10.030;2024-02-21T03:22:34;100817.53;;;9.50
85096;BMP280;75436;53.502;10.030;2024-02-21T03:25:00;100812.28;;;9.50
85096;BMP280;75436;53.502;10.030;2024-02-21T03:27:26;100818.59;;;9.49
85096;BMP280;75436;53.502;10.030;2024-02-21T03:29:51;100834.69;;;9.55
85096;BMP280;75436;53.502;10.030;2024-02-21T03:32:17;100840.19;;;9.46
85096;BMP280;75436;53.502;10.030;2024-02-21T03:34:42;100837.72;;;9.49
85096;BMP280;75436;53.502;10.030;2024-02-21T03:37:07;100843.28;;;9.48
85096;BMP280;75436;53.502;10.030;2024-02-21T03:39:34;100851.78;;;9.53
85096;BMP280;75436;53.502;10.030;2024-02-21T03:42:01;100855.97;;;9.54
85096;BMP280;75436;53.502;10.030;2024-02-21T03:44:31;100856.41;;;9.56
85096;BMP280;75436;53.502;10.030;2024-02-21T03:46:59;100862.63;;;9.60
85096;BMP280;75436;53.502;10.030;2024-02-21T03:49:25;100862.25;;;9.53
85096;BMP280;75436;53.502;10.030;2024-02-21T03:51:52;100867.34;;;9.50
85096;BMP280;75436;53.502;10.030;2024-02-21T03:54:19;100862.88;;;9.50
85096;BMP280;75436;53.502;10.030;2024-02-21T03:56:45;100865.81;;;9.57
85096;BMP280;75436;53.502;10.030;2024-02-21T03:59:12;100866.00;;;9.60
85096;BMP280;75436;53.502;10.030;2024-02-21T04:01:38;100863.97;;;9.57
85096;BMP280;75436;53.502;10.030;2024-02-21T04:04:03;100851.16;;;9.56
85096;BMP280;75436;53.502;10.030;2024-02-21T04:06:29;100835.88;;;9.50
85096;BMP280;75436;53.502;10.030;2024-02-21T04:08:54;100796.34;;;9.38
85096;BMP280;75436;53.502;10.030;2024-02-21T04:11:20;100767.84;;;9.36
85096;BMP280;75436;53.502;10.030;2024-02-21T04:13:46;100757.75;;;9.30
85096;BMP280;75436;53.502;10.030;2024-02-21T04:16:14;100735.56;;;9.19
85096;BMP280;75436;53.502;10.030;2024-02-21T04:18:43;100720.44;;;9.16
85096;BMP280;75436;53.502;10.030;2024-02-21T04:21:10;100709.19;;;9.16
85096;BMP280;75436;53.502;10.030;2024-02-21T04:23:39;100700.69;;;9.10
85096;BMP280;75436;53.502;10.030;2024-02-21T04:26:04;100697.13;;;9.06
85096;BMP280;75436;53.502;10.030;2024-02-21T04:28:29;100691.34;;;9.18
85096;BMP280;75436;53.502;10.030;2024-02-21T04:30:56;100692.41;;;9.17
85096;BMP280;75436;53.502;10.030;2024-02-21T04:33:21;100692.09;;;9.18
85096;BMP280;75436;53.502;10.030;2024-02-21T04:35:47;100684.81;;;9.15
85096;BMP280;75436;53.502;10.030;2024-02-21T04:38:12;100686.50;;;9.11
85096;BMP280;75436;53.502;10.030;2024-02-21T04:40:38;100671.13;;;9.10
85096;BMP280;75436;53.502;10.030;2024-02-21T04:43:03;100673.88;;;9.13
85096;BMP280;75436;53.502;10.030;2024-02-21T04:45:30;100679.09;;;9.13
85096;BMP280;75436;53.502;10.030;2024-02-21T04:47:56;100657.53;;;9.08
85096;BMP280;75436;53.502;10.030;2024-02-21T04:50:22;100662.94;;;9.11
85096;BMP280;75436;53.502;10.030;2024-02-21T04:52:48;100662.59;;;9.04
85096;BMP280;75436;53.502;10.030;2024-02-21T04:55:15;100655.22;;;9.06
85096;BMP280;75436;53.502;10.030;2024-02-21T04:57:41;100655.69;;;9.08
85096;BMP280;75436;53.502;10.030;2024-02-21T05:00:07;100656.31;;;9.05
85096;BMP280;75436;53.502;10.030;2024-02-21T05:02:35;100651.63;;;9.02
85096;BMP280;75436;53.502;10.030;2024-02-21T05:05:02;100632.25;;;9.03
85096;BMP280;75436;53.502;10.030;2024-02-21T05:07:29;100626.41;;;9.06
85096;BMP280;75436;53.502;10.030;2024-02-21T05:09:55;100622.38;;;9.00
85096;BMP280;75436;53.502;10.030;2024-02-21T05:12:21;100615.44;;;8.96
85096;BMP280;75436;53.502;10.030;2024-02-21T05:14:47;100617.47;;;8.99
85096;BMP280;75436;53.502;10.030;2024-02-21T05:17:15;100606.38;;;9.02
85096;BMP280;75436;53.502;10.030;2024-02-21T05:19:41;100600.50;;;8.96
85096;BMP280;75436;53.502;10.030;2024-02-21T05:22:08;100579.72;;;9.00
85096;BMP280;75436;53.502;10.030;2024-02-21T05:24:34;100572.75;;;8.95
85096;BMP280;75436;53.502;10.030;2024-02-21T05:27:00;100568.47;;;8.99
85096;BMP280;75436;53.502;10.030;2024-02-21T05:29:25;100554.41;;;8.95
85096;BMP280;75436;53.502;10.030;2024-02-21T05:34:16;100547.03;;;8.89
85096;BMP280;75436;53.502;10.030;2024-02-21T05:36:41;100490.03;;;8.95
85096;BMP280;75436;53.502;10.030;2024-02-21T05:39:07;100504.66;;;8.95
85096;BMP280;75436;53.502;10.030;2024-02-21T05:41:33;100498.50;;;8.92
85096;BMP280;75436;53.502;10.030;2024-02-21T05:43:59;100497.28;;;8.97
85096;BMP280;75436;53.502;10.030;2024-02-21T05:46:25;100493.41;;;8.95
85096;BMP280;75436;53.502;10.030;2024-02-21T05:48:51;100488.34;;;8.98
85096;BMP280;75436;53.502;10.030;2024-02-21T05:51:17;100499.28;;;8.92
85096;BMP280;75436;53.502;10.030;2024-02-21T05:53:43;100496.34;;;8.94
85096;BMP280;75436;53.502;10.030;2024-02-21T05:56:13;100493.28;;;8.92
85096;BMP280;75436;53.502;10.030;2024-02-21T05:58:40;100483.41;;;8.97
85096;BMP280;75436;53.502;10.030;2024-02-21T06:01:07;100484.34;;;8.93
85096;BMP280;75436;53.502;10.030;2024-02-21T06:03:33;100488.47;;;8.94
85096;BMP280;75436;53.502;10.030;2024-02-21T06:06:00;100486.97;;;8.93
85096;BMP280;75436;53.502;10.030;2024-02-21T06:08:26;100480.03;;;8.96
85096;BMP280;75436;53.502;10.030;2024-02-21T06:10:51;100488.94;;;8.95
85096;BMP280;75436;53.502;10.030;2024-02-21T06:13:26;100498.22;;;9.01
85096;BMP280;75436;53.502;10.030;2024-02-21T06:15:52;100490.94;;;8.98
85096;BMP280;75436;53.502;10.030;2024-02-21T06:18:18;100499.28;;;9.00
85096;BMP280;75436;53.502;10.030;2024-02-21T06:20:44;100507.00;;;8.97
85096;BMP280;75436;53.502;10.030;2024-02-21T06:23:16;100495.44;;;9.06
85096;BMP280;75436;53.502;10.030;2024-02-21T06:25:43;100491.44;;;9.00
85096;BMP280;75436;53.502;10.030;2024-02-21T06:28:09;100492.50;;;8.99
85096;BMP280;75436;53.502;10.030;2024-02-21T06:30:35;100490.50;;;8.96
85096;BMP280;75436;53.502;10.030;2024-02-21T06:33:01;100486.34;;;8.95
85096;BMP280;75436;53.502;10.030;2024-02-21T06:35:27;100484.47;;;8.96
85096;BMP280;75436;53.502;10.030;2024-02-21T06:37:53;100482.81;;;9.00
85096;BMP280;75436;53.502;10.030;2024-02-21T06:40:22;100476.16;;;9.02
85096;BMP280;75436;53.502;10.030;2024-02-21T06:42:49;100481.56;;;8.97
85096;BMP280;75436;53.502;10.030;2024-02-21T06:45:15;100484.00;;;8.94
85096;BMP280;75436;53.502;10.030;2024-02-21T06:47:41;100481.56;;;8.97
85096;BMP280;75436;53.502;10.030;2024-02-21T06:50:06;100472.63;;;8.98
85096;BMP280;75436;53.502;10.030;2024-02-21T06:52:34;100477.22;;;8.93
85096;BMP280;75436;53.502;10.030;2024-02-21T06:55:00;100485.09;;;8.93
85096;BMP280;75436;53.502;10.030;2024-02-21T06:57:28;100491.56;;;8.95
85096;BMP280;75436;53.502;10.030;2024-02-21T06:59:54;100484.19;;;8.97
85096;BMP280;75436;53.502;10.030;2024-02-21T07:02:20;100480.63;;;8.94
85096;BMP280;75436;53.502;10.030;2024-02-21T07:04:45;100478.31;;;9.00
85096;BMP280;75436;53.502;10.030;2024-02-21T07:07:11;100482.50;;;9.01
85096;BMP280;75436;53.502;10.030;2024-02-21T07:09:36;100478.94;;;9.06
85096;BMP280;75436;53.502;10.030;2024-02-21T07:12:02;100483.56;;;9.00
85096;BMP280;75436;53.502;10.030;2024-02-21T07:14:29;100478.03;;;9.02
85096;BMP280;75436;53.502;10.030;2024-02-21T07:16:55;100482.63;;;9.05
85096;BMP280;75436;53.502;10.030;2024-02-21T07:19:22;100479.25;;;9.04
85096;BMP280;75436;53.502;10.030;2024-02-21T07:21:47;100476.63;;;9.04
85096;BMP280;75436;53.502;10.030;2024-02-21T07:24:15;100483.56;;;9.09
85096;BMP280;75436;53.502;10.030;2024-02-21T07:26:42;100484.66;;;9.16
85096;BMP280;75436;53.502;10.030;2024-02-21T07:29:08;100496.19;;;9.15
85096;BMP280;75436;53.502;10.030;2024-02-21T07:31:44;100486.81;;;9.14
85096;BMP280;75436;53.502;10.030;2024-02-21T07:34:10;100492.22;;;9.09
85096;BMP280;75436;53.502;10.030;2024-02-21T07:36:37;100496.53;;;9.14
85096;BMP280;75436;53.502;10.030;2024-02-21T07:39:04;100491.44;;;9.17
85096;BMP280;75436;53.502;10.030;2024-02-21T07:41:29;100498.06;;;9.15
85096;BMP280;75436;53.502;10.030;2024-02-21T07:43:55;100487.28;;;9.08
85096;BMP280;75436;53.502;10.030;2024-02-21T07:46:21;100497.00;;;9.16
85096;BMP280;75436;53.502;10.030;2024-02-21T07:48:47;100488.94;;;9.12
85096;BMP280;75436;53.502;10.030;2024-02-21T07:51:12;100483.88;;;9.16
85096;BMP280;75436;53.502;10.030;2024-02-21T07:53:41;100484.94;;;9.15
85096;BMP280;75436;53.502;10.030;2024-02-21T07:56:13;100480.94;;;9.09
85096;BMP280;75436;53.502;10.030;2024-02-21T07:58:40;100487.56;;;9.15
85096;BMP280;75436;53.502;10.030;2024-02-21T08:01:06;100480.19;;;9.08
85096;BMP280;75436;53.502;10.030;2024-02-21T08:03:32;100491.44;;;9.00
85096;BMP280;75436;53.502;10.030;2024-02-21T08:05:57;100485.13;;;9.01
85096;BMP280;75436;53.502;10.030;2024-02-21T08:08:22;100480.34;;;9.03
85096;BMP280;75436;53.502;10.030;2024-02-21T08:10:51;100476.50;;;9.09
85096;BMP280;75436;53.502;10.030;2024-02-21T08:13:16;100486.63;;;9.02
85096;BMP280;75436;53.502;10.030;2024-02-21T08:15:42;100483.41;;;9.05
85096;BMP280;75436;53.502;10.030;2024-02-21T08:18:08;100496.19;;;9.07
85096;BMP280;75436;53.502;10.030;2024-02-21T08:20:34;100488.03;;;9.08
85096;BMP280;75436;53.502;10.030;2024-02-21T08:23:00;100481.75;;;9.09
85096;BMP280;75436;53.502;10.030;2024-02-21T08:25:26;100478.03;;;9.10
85096;BMP280;75436;53.502;10.030;2024-02-21T08:27:57;100466.31;;;9.08
85096;BMP280;75436;53.502;10.030;2024-02-21T08:30:23;100480.34;;;9.03
85096;BMP280;75436;53.502;10.030;2024-02-21T08:32:48;100472.94;;;9.05
85096;BMP280;75436;53.502;10.030;2024-02-21T08:35:14;100473.88;;;9.09
85096;BMP280;75436;53.502;10.030;2024-02-21T08:37:40;100468.75;;;9.04
85096;BMP280;75436;53.502;10.030;2024-02-21T08:40:08;100477.72;;;9.03
85096;BMP280;75436;53.502;10.030;2024-02-21T08:42:35;100470.91;;;8.94
85096;BMP280;75436;53.502;10.030;2024-02-21T08:45:03;100485.41;;;8.83
85096;BMP280;75436;53.502;10.030;2024-02-21T08:47:28;100478.00;;;8.77
85096;BMP280;75436;53.502;10.030;2024-02-21T08:49:54;100480.59;;;8.77
85096;BMP280;75436;53.502;10.030;2024-02-21T08:52:19;100490.31;;;8.68
85096;BMP280;75436;53.502;10.030;2024-02-21T08:54:48;100484.59;;;8.66
85096;BMP280;75436;53.502;10.030;2024-02-21T08:57:15;100486.00;;;8.64
85096;BMP280;75436;53.502;10.030;2024-02-21T08:59:40;100485.84;;;8.68
85096;BMP280;75436;53.502;10.030;2024-02-21T09:02:06;100484.91;;;8.73
85096;BMP280;75436;53.502;10.030;2024-02-21T09:04:32;100483.53;;;8.67
85096;BMP280;75436;53.502;10.030;2024-02-21T09:06:58;100486.75;;;8.64
85096;BMP280;75436;53.502;10.030;2024-02-21T09:09:23;100487.19;;;8.58
85096;BMP280;75436;53.502;10.030;2024-02-21T09:11:49;100487.97;;;8.66
85096;BMP280;75436;53.502;10.030;2024-02-21T09:14:14;100487.38;;;8.69
85096;BMP280;75436;53.502;10.030;2024-02-21T09:16:40;100480.91;;;8.67
85096;BMP280;75436;53.502;10.030;2024-02-21T09:19:05;100483.50;;;8.75
85096;BMP280;75436;53.502;10.030;2024-02-21T09:21:31;100480.59;;;8.77
85096;BMP280;75436;53.502;10.030;2024-02-21T09:23:56;100476.78;;;8.83
85096;BMP280;75436;53.502;10.030;2024-02-21T09:26:22;100478.47;;;8.79
85096;BMP280;75436;53.502;10.030;2024-02-21T09:28:48;100470.78;;;8.74
85096;BMP280;75436;53.502;10.030;2024-02-21T09:31:15;100474.16;;;8.74
85096;BMP280;75436;53.502;10.030;2024-02-21T09:33:41;100467.84;;;8.84
85096;BMP280;75436;53.502;10.030;2024-02-21T09:36:06;100468.94;;;8.74
85096;BMP280;75436;53.502;10.030;2024-02-21T09:38:32;100463.50;;;8.79
85096;BMP280;75436;53.502;10.030;2024-02-21T09:40:59;100456.13;;;8.90
85096;BMP280;75436;53.502;10.030;2024-02-21T09:43:32;100447.81;;;8.88
85096;BMP280;75436;53.502;10.030;2024-02-21T09:46:01;100446.28;;;8.87
85096;BMP280;75436;53.502;10.030;2024-02-21T09:49:04;100434.13;;;8.91
85096;BMP280;75436;53.502;10.030;2024-02-21T09:51:36;100429.19;;;8.97
85096;BMP280;75436;53.502;10.030;2024-02-21T09:54:03;100420.84;;;9.04
85096;BMP280;75436;53.502;10.030;2024-02-21T09:56:30;100415.63;;;9.04
85096;BMP280;75436;53.502;10.030;2024-02-21T09:58:57;100413.16;;;9.07
85096;BMP280;75436;53.502;10.030;2024-02-21T10:01:22;100410.69;;;9.19
85096;BMP280;75436;53.502;10.030;2024-02-21T10:03:48;100406.22;;;9.20
85096;BMP280;75436;53.502;10.030;2024-02-21T10:06:13;100408.81;;;9.28
85096;BMP280;75436;53.502;10.030;2024-02-21T10:08:39;100409.44;;;9.25
85096;BMP280;75436;53.502;10.030;2024-02-21T10:11:05;100404.00;;;9.30
85096;BMP280;75436;53.502;10.030;2024-02-21T10:13:31;100407.91;;;9.24
85096;BMP280;75436;53.502;10.030;2024-02-21T10:16:07;100414.50;;;9.30
85096;BMP280;75436;53.502;10.030;2024-02-21T10:18:33;100409.59;;;9.28
85096;BMP280;75436;53.502;10.030;2024-02-21T10:21:04;100409.41;;;9.33
85096;BMP280;75436;53.502;10.030;2024-02-21T10:23:45;100395.19;;;9.43
85096;BMP280;75436;53.502;10.030;2024-02-21T10:26:15;100397.97;;;9.38
85096;BMP280;75436;53.502;10.030;2024-02-21T10:28:41;100388.09;;;9.52
85096;BMP280;75436;53.502;10.030;2024-02-21T10:31:11;100399.84;;;9.37
85096;BMP280;75436;53.502;10.030;2024-02-21T10:33:53;100386.56;;;9.51
85096;BMP280;75436;53.502;10.030;2024-02-21T10:36:23;100390.84;;;9.47
85096;BMP280;75436;53.502;10.030;2024-02-21T10:38:50;100397.66;;;9.48
85096;BMP280;75436;53.502;10.030;2024-02-21T10:41:19;100388.72;;;9.49
85096;BMP280;75436;53.502;10.030;2024-02-21T10:43:53;100393.31;;;9.60
85096;BMP280;75436;53.502;10.030;2024-02-21T10:46:21;100392.06;;;9.57
85096;BMP280;75436;53.502;10.030;2024-02-21T10:49:01;100397.31;;;9.57
85096;BMP280;75436;53.502;10.030;2024-02-21T10:51:33;100403.38;;;9.50
85096;BMP280;75436;53.502;10.030;2024-02-21T10:56:42;100412.75;;;9.51
85096;BMP280;75436;53.502;10.030;2024-02-21T10:59:08;100413.03;;;9.57
85096;BMP280;75436;53.502;10.030;2024-02-21T11:01:34;100428.44;;;9.67
85096;BMP280;75436;53.502;10.030;2024-02-21T11:04:08;100437.28;;;9.55
85096;BMP280;75436;53.502;10.030;2024-02-21T11:06:38;100435.56;;;9.58
85096;BMP280;75436;53.502;10.030;2024-02-21T11:09:08;100437.13;;;9.51
85096;BMP280;75436;53.502;10.030;2024-02-21T11:11:35;100438.50;;;9.57
85096;BMP280;75436;53.502;10.030;2024-02-21T11:14:10;100447.94;;;9.50
85096;BMP280;75436;53.502;10.030;2024-02-21T11:19:21;100438.19;;;9.58
85096;BMP280;75436;53.502;10.030;2024-02-21T11:21:49;100443.25;;;9.63
85096;BMP280;75436;53.502;10.030;2024-02-21T11:24:31;100439.91;;;9.55
85096;BMP280;75436;53.502;10.030;2024-02-21T11:27:19;100478.91;;;9.56
85096;BMP280;75436;53.502;10.030;2024-02-21T11:29:56;100478.75;;;9.53
85096;BMP280;75436;53.502;10.030;2024-02-21T11:32:23;100480.91;;;9.51
85096;BMP280;75436;53.502;10.030;2024-02-21T11:37:34;100485.22;;;9.47
85096;BMP280;75436;53.502;10.030;2024-02-21T11:40:02;100486.91;;;9.51
85096;BMP280;75436;53.502;10.030;2024-02-21T11:42:30;100489.72;;;9.46
85096;BMP280;75436;53.502;10.030;2024-02-21T11:44:56;100489.41;;;9.48
85096;BMP280;75436;53.502;10.030;2024-02-21T11:47:22;100487.38;;;9.61
85096;BMP280;75436;53.502;10.030;2024-02-21T11:49:49;100499.09;;;9.55
85096;BMP280;75436;53.502;10.030;2024-02-21T11:52:21;100502.50;;;9.48
85096;BMP280;75436;53.502;10.030;2024-02-21T11:54:48;100526.84;;;9.56
85096;BMP280;75436;53.502;10.030;2024-02-21T11:57:14;100533.31;;;9.67
85096;BMP280;75436;53.502;10.030;2024-02-21T11:59:40;100531.00;;;9.66
85096;BMP280;75436;53.502;10.030;2024-02-21T12:02:06;100529.94;;;9.58
85096;BMP280;75436;53.502;10.030;2024-02-21T12:04:32;100525.00;;;9.57
85096;BMP280;75436;53.502;10.030;2024-02-21T12:06:59;100522.38;;;9.49
85096;BMP280;75436;53.502;10.030;2024-02-21T12:09:25;100528.38;;;9.57
85096;BMP280;75436;53.502;10.030;2024-02-21T12:12:01;100544.09;;;9.57
85096;BMP280;75436;53.502;10.030;2024-02-21T12:14:30;100543.81;;;9.59
85096;BMP280;75436;53.502;10.030;2024-02-21T12:17:00;100544.00;;;9.54
85096;BMP280;75436;53.502;10.030;2024-02-21T12:19:30;100519.94;;;9.52
85096;BMP280;75436;53.502;10.030;2024-02-21T12:21:56;100514.06;;;9.38
85096;BMP280;75436;53.502;10.030;2024-02-21T12:24:27;100507.59;;;9.44
85096;BMP280;75436;53.502;10.030;2024-02-21T12:26:55;100490.94;;;9.32
85096;BMP280;75436;53.502;10.030;2024-02-21T12:29:23;100470.94;;;9.27
85096;BMP280;75436;53.502;10.030;2024-02-21T12:31:51;100464.75;;;9.32
85096;BMP280;75436;53.502;10.030;2024-02-21T12:34:17;100464.16;;;9.26
85096;BMP280;75436;53.502;10.030;2024-02-21T12:36:44;100473.41;;;9.32
85096;BMP280;75436;53.502;10.030;2024-02-21T12:39:13;100481.75;;;9.26
85096;BMP280;75436;53.502;10.030;2024-02-21T12:41:42;100499.28;;;9.42
85096;BMP280;75436;53.502;10.030;2024-02-21T12:44:09;100498.22;;;9.35
85096;BMP280;75436;53.502;10.030;2024-02-21T12:46:39;100488.78;;;9.34
85096;BMP280;75436;53.502;10.030;2024-02-21T12:49:05;100486.03;;;9.39
85096;BMP280;75436;53.502;10.030;2024-02-21T12:51:31;100483.72;;;9.46
85096;BMP280;75436;53.502;10.030;2024-02-21T12:53:57;100475.19;;;9.57
85096;BMP280;75436;53.502;10.030;2024-02-21T12:56:22;100508.81;;;9.47
85096;BMP280;75436;53.502;10.030;2024-02-21T12:58:49;100513.59;;;9.61
85096;BMP280;75436;53.502;10.030;2024-02-21T13:01:17;100537.97;;;9.62
85096;BMP280;75436;53.502;10.030;2024-02-21T13:03:43;100555.38;;;9.66
85096;BMP280;75436;53.502;10.030;2024-02-21T13:06:08;100542.84;;;9.80
85096;BMP280;75436;53.502;10.030;2024-02-21T13:08:36;100562.78;;;9.73
85096;BMP280;75436;53.502;10.030;2024-02-21T13:11:02;100565.06;;;9.74
85096;BMP280;75436;53.502;10.030;2024-02-21T13:13:28;100569.81;;;9.89
85096;BMP280;75436;53.502;10.030;2024-02-21T13:15:53;100572.00;;;9.95
85096;BMP280;75436;53.502;10.030;2024-02-21T13:18:19;100577.53;;;10.02
85096;BMP280;75436;53.502;10.030;2024-02-21T13:20:44;100583.69;;;10.06
85096;BMP280;75436;53.502;10.030;2024-02-21T13:23:11;100567.06;;;10.02
85096;BMP280;75436;53.502;10.030;2024-02-21T13:25:36;100566.09;;;10.07
85096;BMP280;75436;53.502;10.030;2024-02-21T13:28:01;100591.09;;;10.13
85096;BMP280;75436;53.502;10.030;2024-02-21T13:30:29;100599.03;;;9.96
85096;BMP280;75436;53.502;10.030;2024-02-21T13:32:54;100583.28;;;9.96
85096;BMP280;75436;53.502;10.030;2024-02-21T13:35:20;100584.97;;;9.92
85096;BMP280;75436;53.502;10.030;2024-02-21T13:37:46;100577.25;;;9.87
85096;BMP280;75436;53.502;10.030;2024-02-21T13:40:12;100563.97;;;9.92
85096;BMP280;75436;53.502;10.030;2024-02-21T13:42:39;100575.69;;;10.03
85096;BMP280;75436;53.502;10.030;2024-02-21T13:45:06;100575.69;;;10.03
85096;BMP280;75436;53.502;10.030;2024-02-21T13:47:32;100578.59;;;10.10
85096;BMP280;75436;53.502;10.030;2024-02-21T13:49:59;100600.34;;;10.10
85096;BMP280;75436;53.502;10.030;2024-02-21T13:52:25;100574.91;;;10.11
85096;BMP280;75436;53.502;10.030;2024-02-21T13:54:53;100565.22;;;10.31
85096;BMP280;75436;53.502;10.030;2024-02-21T13:57:18;100611.16;;;10.17
85096;BMP280;75436;53.502;10.030;2024-02-21T13:59:44;100612.41;;;10.11
85096;BMP280;75436;53.502;10.030;2024-02-21T14:02:09;100612.38;;;10.28
85096;BMP280;75436;53.502;10.030;2024-02-21T14:04:35;100631.66;;;10.23
85096;BMP280;75436;53.502;10.030;2024-02-21T14:07:01;100623.47;;;10.25
85096;BMP280;75436;53.502;10.030;2024-02-21T14:09:28;100646.56;;;10.40